Time;durP1;ratioP1;P1;durP2;ratioP2;P2;SDS_P1;SDS_P2;PMS_P1;PMS_P2;Temp;Humidity;BMP_temperature;BMP_pressure;BME280_temperature;BME280_humidity;BME280_pressure;Samples;Min_cycle;Max_cycle;Signal;HPM_P1;HPM_P2
2022/05/01 00:00:28;;;;;;;64.50;19.05;;;;;;;3.60;55.51;100408.47;4982958;28;20042;-81
2022/05/01 00:02:54;;;;;;;83.55;22.85;;;;;;;3.64;55.32;100415.03;4993722;28;20088;-82
2022/05/01 00:05:20;;;;;;;108.05;29.08;;;;;;;3.61;55.43;100415.53;4994125;28;20054;-82
2022/05/01 00:07:47;;;;;;;133.10;32.90;;;;;;;3.58;55.75;100408.72;4992564;28;20053;-82
2022/05/01 00:10:13;;;;;;;103.67;29.83;;;;;;;3.41;55.93;100405.97;4995692;28;20104;-81
2022/05/01 00:12:40;;;;;;;98.20;28.60;;;;;;;3.38;56.40;100417.25;5001262;28;20416;-82
2022/05/01 00:15:07;;;;;;;68.73;21.83;;;;;;;3.26;56.58;100417.25;4981773;28;20116;-82
2022/05/01 00:17:33;;;;;;;61.00;20.13;;;;;;;3.29;56.61;100426.78;4995361;28;20464;-79
2022/05/01 00:20:00;;;;;;;53.88;16.85;;;;;;;3.09;56.62;100385.81;4996524;28;20101;-80
2022/05/01 00:22:33;;;;;;;59.97;18.83;;;;;;;3.19;57.02;100411.16;4995554;28;20085;-82
2022/05/01 00:25:10;;;;;;;55.17;17.25;;;;;;;3.28;56.64;100423.25;4993891;28;20553;-80
2022/05/01 00:27:42;;;;;;;44.17;14.82;;;;;;;3.29;56.13;100415.97;4995159;28;20065;-80
2022/05/01 00:30:13;;;;;;;59.03;15.45;;;;;;;3.41;56.07;100415.94;4995696;28;20042;-80
2022/05/01 00:38:22;;;;;;;40.50;13.43;;;;;;;3.49;54.92;100420.97;4996681;28;20046;-78
2022/05/01 00:40:51;;;;;;;34.65;12.85;;;;;;;3.56;54.96;100418.13;4996804;28;20532;-79
2022/05/01 00:43:23;;;;;;;31.25;11.32;;;;;;;3.47;54.61;100410.38;4979524;28;20138;-80
2022/05/01 00:45:53;;;;;;;27.27;12.32;;;;;;;3.52;54.87;100424.03;4996347;28;20504;-79
2022/05/01 00:48:20;;;;;;;31.02;11.85;;;;;;;3.54;54.68;100434.59;4993728;28;20042;-80
2022/05/01 00:50:55;;;;;;;25.10;10.75;;;;;;;3.57;53.88;100426.00;4994829;28;20490;-79
2022/05/01 00:53:27;;;;;;;35.20;12.23;;;;;;;3.61;54.52;100423.63;4995007;28;20511;-78
2022/05/01 00:55:56;;;;;;;33.38;12.07;;;;;;;3.63;54.41;100421.53;4994720;28;20046;-79
2022/05/01 00:58:29;;;;;;;43.80;12.23;;;;;;;3.61;54.58;100424.47;4993749;28;20042;-81
2022/05/01 01:00:56;;;;;;;36.53;12.02;;;;;;;3.62;54.53;100423.41;4994842;28;20423;-80
2022/05/01 01:03:22;;;;;;;35.78;12.15;;;;;;;3.58;54.66;100430.38;4994946;28;20092;-80
2022/05/01 01:05:49;;;;;;;38.85;13.35;;;;;;;3.50;54.93;100415.31;4995167;28;20125;-79
2022/05/01 01:08:16;;;;;;;39.30;13.13;;;;;;;3.67;54.74;100430.78;4993498;28;20092;-79
2022/05/01 01:10:46;;;;;;;39.72;12.98;;;;;;;3.57;54.96;100414.38;4994795;28;20092;-79
2022/05/01 01:13:12;;;;;;;45.60;14.17;;;;;;;3.56;55.44;100427.06;4994479;28;20042;-79
2022/05/01 01:15:50;;;;;;;36.33;13.77;;;;;;;3.55;55.30;100430.84;4994691;28;20056;-79
2022/05/01 01:18:17;;;;;;;41.58;17.10;;;;;;;3.60;55.19;100436.34;4994676;28;20105;-79
2022/05/01 01:20:48;;;;;;;56.58;21.55;;;;;;;3.52;55.54;100431.31;4977573;28;20038;-79
2022/05/01 01:23:23;;;;;;;47.17;17.52;;;;;;;3.41;55.51;100408.66;4994780;28;20582;-79
2022/05/01 01:25:51;;;;;;;38.35;14.15;;;;;;;3.55;55.35;100432.72;4993092;28;20133;-80
2022/05/01 01:28:21;;;;;;;37.67;14.35;;;;;;;3.45;55.12;100411.72;4994146;28;20109;-81
2022/05/01 01:33:43;;;;;;;45.30;16.00;;;;;;;3.39;55.92;100418.88;4993856;28;20128;-80
2022/05/01 01:36:16;;;;;;;48.88;15.63;;;;;;;3.47;55.45;100426.59;4994973;28;20137;-79
2022/05/01 01:38:43;;;;;;;37.47;16.23;;;;;;;3.47;55.64;100426.59;4994052;28;20042;-80
2022/05/01 01:41:12;;;;;;;41.38;16.58;;;;;;;3.53;55.21;100432.94;4994133;28;20046;-80
2022/05/01 01:43:44;;;;;;;46.85;15.82;;;;;;;3.60;55.22;100430.94;4994248;28;20107;-80
2022/05/01 01:46:10;;;;;;;43.10;14.23;;;;;;;3.61;54.74;100423.63;4994040;28;20050;-79
2022/05/01 01:48:37;;;;;;;44.25;13.73;;;;;;;3.61;54.61;100410.97;4992231;28;20116;-79
2022/05/01 01:51:09;;;;;;;39.17;13.45;;;;;;;3.68;54.25;100414.34;4993503;28;20567;-79
2022/05/01 01:53:37;;;;;;;39.72;14.73;;;;;;;3.70;54.26;100414.91;4993882;28;20037;-79
2022/05/01 01:56:10;;;;;;;50.78;16.80;;;;;;;3.69;54.37;100415.97;4993861;28;20038;-80
2022/05/01 01:58:40;;;;;;;41.67;15.95;;;;;;;3.65;54.62;100419.41;4993805;28;20043;-80
2022/05/01 02:01:10;;;;;;;45.80;17.08;;;;;;;3.65;54.95;100430.22;4988813;28;20083;-79
2022/05/01 02:03:40;;;;;;;46.22;17.42;;;;;;;3.57;55.24;100425.19;4974044;28;20512;-78
2022/05/01 02:06:10;;;;;;;35.00;14.80;;;;;;;3.53;55.30;100420.25;4973699;28;20054;-79
2022/05/01 02:08:37;;;;;;;42.40;14.52;;;;;;;3.44;55.63;100431.66;4974015;28;20050;-79
2022/05/01 02:11:07;;;;;;;42.85;14.85;;;;;;;3.53;55.56;100432.94;4973936;28;20066;-78
2022/05/01 02:13:37;;;;;;;32.95;13.13;;;;;;;3.54;55.25;100418.34;4974055;28;20039;-79
2022/05/01 02:16:08;;;;;;;35.03;13.15;;;;;;;3.51;54.94;100430.50;4973672;28;20053;-79
2022/05/01 02:18:35;;;;;;;31.15;13.07;;;;;;;3.64;55.12;100442.94;4973740;28;20046;-79
2022/05/01 02:24:08;;;;;;;26.95;10.93;;;;;;;3.81;54.04;100428.63;4973317;28;20122;-79
2022/05/01 02:26:39;;;;;;;24.42;10.27;;;;;;;3.73;53.32;100427.13;4973453;28;20050;-80
2022/05/01 02:29:27;;;;;;;26.23;10.35;;;;;;;3.83;52.83;100430.03;4973860;28;20061;-80
2022/05/01 02:32:01;;;;;;;25.70;9.60;;;;;;;3.76;53.13;100423.94;4973078;28;20173;-79
2022/05/01 02:34:30;;;;;;;20.35;10.13;;;;;;;3.88;52.70;100438.25;4973778;28;20050;-79
2022/05/01 02:37:01;;;;;;;26.05;9.02;;;;;;;3.93;52.53;100438.34;4972881;28;20516;-79
2022/05/01 02:39:37;;;;;;;22.33;9.32;;;;;;;3.98;52.30;100432.22;4975159;28;20039;-79
2022/05/01 02:42:14;;;;;;;26.85;9.32;;;;;;;4.01;52.16;100437.16;4973502;28;20093;-79
2022/05/01 02:44:44;;;;;;;27.35;9.52;;;;;;;4.11;51.98;100439.22;4973213;28;20047;-79
2022/05/01 02:47:30;;;;;;;30.35;10.38;;;;;;;4.15;51.98;100440.38;4974457;28;20097;-79
2022/05/01 02:49:59;;;;;;;23.58;9.68;;;;;;;4.25;51.91;100435.16;4973364;28;20046;-78
2022/05/01 02:52:28;;;;;;;29.80;8.40;;;;;;;4.28;51.50;100433.84;4972954;28;20053;-79
2022/05/01 02:54:58;;;;;;;27.77;9.55;;;;;;;4.30;51.56;100432.50;4972887;28;20043;-79
2022/05/01 02:57:39;;;;;;;28.13;9.95;;;;;;;4.36;51.78;100431.53;4973046;28;20054;-81
2022/05/01 03:00:20;;;;;;;23.90;9.10;;;;;;;4.43;51.38;100429.50;4978797;28;20129;-79
2022/05/01 03:03:01;;;;;;;29.35;9.32;;;;;;;4.57;51.06;100443.56;4992476;28;20492;-79
2022/05/01 03:05:37;;;;;;;32.13;9.27;;;;;;;4.53;51.04;100428.84;4992207;28;20038;-79
2022/05/01 03:08:06;;;;;;;26.63;9.35;;;;;;;4.64;50.57;100436.09;4992684;28;20081;-80
2022/05/01 03:10:41;;;;;;;18.58;7.57;;;;;;;4.65;49.73;100440.44;4991803;28;20084;-79
2022/05/01 03:13:18;;;;;;;17.60;7.55;;;;;;;4.67;49.48;100430.19;4991450;28;20562;-79
2022/05/01 03:15:59;;;;;;;25.70;8.15;;;;;;;4.72;49.23;100424.81;4992057;28;20045;-80
2022/05/01 03:24:13;;;;;;;20.73;7.07;;;;;;;5.02;48.44;100430.97;4994149;28;20045;-82
2022/05/01 03:26:42;;;;;;;22.83;8.15;;;;;;;5.08;47.93;100430.78;4992096;28;20420;-83
2022/05/01 03:29:21;;;;;;;19.55;6.90;;;;;;;5.24;47.56;100436.44;4993217;28;20157;-83
2022/05/01 03:31:57;;;;;;;17.83;7.13;;;;;;;5.31;47.80;100446.03;4993294;28;20157;-79
2022/05/01 03:34:29;;;;;;;17.63;6.55;;;;;;;5.23;46.64;100449.19;4992756;28;20042;-81
2022/05/01 03:37:06;;;;;;;15.48;6.80;;;;;;;5.28;46.47;100446.53;4991462;28;20047;-80
2022/05/01 03:39:35;;;;;;;13.32;6.47;;;;;;;5.35;46.43;100447.16;4994542;28;20113;-80
2022/05/01 03:42:04;;;;;;;16.13;6.80;;;;;;;5.44;45.96;100452.16;4993804;28;20038;-80
2022/05/01 03:44:32;;;;;;;14.18;6.50;;;;;;;5.56;45.76;100447.41;4996553;28;20081;-80
2022/05/01 03:47:03;;;;;;;15.60;5.97;;;;;;;5.60;45.53;100449.41;4997077;28;20165;-80
2022/05/01 03:49:32;;;;;;;17.23;5.97;;;;;;;5.55;45.14;100435.75;4997850;28;20689;-80
2022/05/01 03:52:03;;;;;;;13.65;6.30;;;;;;;5.70;44.96;100451.41;4995088;28;20043;-79
2022/05/01 03:54:35;;;;;;;12.93;6.10;;;;;;;5.75;44.68;100448.75;4978740;28;20038;-79
2022/05/01 03:57:05;;;;;;;18.73;6.63;;;;;;;5.59;44.41;100427.94;4996271;28;20038;-79
2022/05/01 03:59:36;;;;;;;15.40;5.57;;;;;;;5.78;44.52;100455.56;4996373;28;20479;-79
2022/05/01 04:02:07;;;;;;;11.85;5.82;;;;;;;5.82;43.85;100449.38;4996378;28;20066;-80
2022/05/01 04:04:45;;;;;;;15.20;5.82;;;;;;;5.86;43.58;100455.94;4995438;28;20424;-79
2022/05/01 04:07:23;;;;;;;13.80;5.43;;;;;;;5.93;43.24;100438.66;4997635;28;20050;-79
2022/05/01 04:09:52;;;;;;;11.02;5.60;;;;;;;6.00;43.52;100442.84;4994787;28;20054;-81
2022/05/01 04:12:21;;;;;;;19.33;6.28;;;;;;;6.07;43.41;100432.59;4996763;28;20523;-78
2022/05/01 04:14:54;;;;;;;13.20;5.32;;;;;;;6.17;42.52;100452.78;4996023;28;20563;-81
2022/05/01 04:17:21;;;;;;;14.48;5.35;;;;;;;6.18;42.01;100448.97;4995672;28;20050;-85
2022/05/01 04:19:50;;;;;;;16.50;5.63;;;;;;;6.24;42.48;100447.97;4997113;28;20042;-79
2022/05/01 04:22:22;;;;;;;11.02;5.28;;;;;;;6.28;42.73;100455.31;4995894;28;20089;-80
2022/05/01 04:24:50;;;;;;;17.05;6.05;;;;;;;6.25;42.81;100439.53;4995849;28;20046;-80
2022/05/01 04:27:17;;;;;;;;;;;;;;;6.39;42.20;100450.00;4995948;28;20042;-79
2022/05/01 04:29:44;;;;;;;11.27;5.10;;;;;;;6.50;42.35;100449.03;4996075;28;19917;-85
2022/05/01 04:32:21;;;;;;;18.60;5.15;;;;;;;6.55;42.48;100444.44;4996385;28;20097;-83
2022/05/01 04:34:56;;;;;;;13.48;6.20;;;;;;;6.67;41.84;100438.84;4995971;28;20031;-80
2022/05/01 04:37:23;;;;;;;13.97;6.10;;;;;;;6.76;41.64;100445.44;4995706;28;20104;-79
2022/05/01 04:39:49;;;;;;;13.98;6.10;;;;;;;6.77;41.08;100449.78;4996704;28;20038;-80
2022/05/01 04:42:17;;;;;;;12.55;6.15;;;;;;;6.85;41.19;100453.09;4996611;28;20237;-81
2022/05/01 04:44:43;;;;;;;20.60;6.60;;;;;;;6.92;41.33;100445.53;4997612;28;20042;-80
2022/05/01 04:47:10;;;;;;;18.48;6.00;;;;;;;6.89;40.68;100427.88;4995127;28;20035;-81
2022/05/01 04:49:36;;;;;;;14.75;6.97;;;;;;;7.13;40.83;100443.81;4994079;28;20053;-80
2022/05/01 04:52:03;;;;;;;18.37;6.23;;;;;;;7.17;40.84;100445.72;4995829;28;20044;-85
2022/05/01 04:54:29;;;;;;;25.50;6.68;;;;;;;7.21;41.08;100425.06;4995200;28;20313;-84
2022/05/01 04:57:09;;;;;;;14.40;6.20;;;;;;;7.36;41.10;100428.97;4995377;28;20081;-81
2022/05/01 04:59:36;;;;;;;12.98;5.70;;;;;;;7.46;40.75;100439.91;4995083;28;20078;-82
2022/05/01 05:02:03;;;;;;;;;;;;;;;7.57;40.27;100444.31;4996207;28;20038;-81
2022/05/01 05:04:29;;;;;;;12.10;5.68;;;;;;;7.66;40.16;100440.00;4995171;28;20411;-82
2022/05/01 05:06:56;;;;;;;11.93;5.20;;;;;;;7.67;39.76;100441.63;4993904;28;20039;-80
2022/05/01 05:12:09;;;;;;;15.60;6.00;;;;;;;7.88;39.98;100442.53;4995330;28;20053;-86
2022/05/01 05:14:36;;;;;;;10.68;4.25;;;;;;;7.97;38.79;100440.91;4995025;28;20045;-80
2022/05/01 05:17:06;;;;;;;10.20;3.65;;;;;;;8.13;38.09;100438.22;4995112;28;20054;-83
2022/05/01 05:19:34;;;;;;;11.88;4.30;;;;;;;8.14;37.65;100435.22;4995129;28;20038;-85
2022/05/01 05:22:00;;;;;;;9.25;3.60;;;;;;;8.33;36.18;100440.19;4996720;28;20061;-81
2022/05/01 05:24:26;;;;;;;14.77;3.97;;;;;;;8.36;36.68;100440.44;4996441;28;20125;-80
2022/05/01 05:26:52;;;;;;;8.65;3.45;;;;;;;8.34;35.71;100428.19;4995954;28;20121;-80
2022/05/01 05:29:20;;;;;;;9.75;4.43;;;;;;;8.47;35.61;100435.84;4994729;28;20034;-81
2022/05/01 05:31:47;;;;;;;8.25;3.55;;;;;;;8.51;35.28;100433.41;5010570;28;20042;-79
2022/05/01 05:34:13;;;;;;;15.17;4.20;;;;;;;8.43;35.51;100421.16;4995230;28;20042;-79
2022/05/01 05:36:39;;;;;;;9.40;3.70;;;;;;;8.53;35.32;100429.31;4995455;28;20411;-80
2022/05/01 05:39:05;;;;;;;8.60;3.67;;;;;;;8.72;35.57;100431.53;4994468;28;20054;-81
2022/05/01 05:41:31;;;;;;;8.85;3.88;;;;;;;8.76;35.71;100422.50;4994132;28;20034;-80
2022/05/01 05:43:57;;;;;;;11.75;3.90;;;;;;;8.76;35.46;100410.78;4993706;28;20054;-80
2022/05/01 05:46:24;;;;;;;7.35;3.10;;;;;;;8.84;33.93;100410.22;4994624;28;20065;-82
2022/05/01 05:48:50;;;;;;;7.47;3.17;;;;;;;9.00;33.48;100420.03;4992889;28;20045;-81
2022/05/01 05:51:17;;;;;;;17.73;4.13;;;;;;;8.95;33.08;100411.88;4994780;28;20073;-80
2022/05/01 05:53:43;;;;;;;9.52;3.40;;;;;;;9.10;33.31;100420.00;4992994;28;20659;-84
2022/05/01 05:56:10;;;;;;;6.47;3.08;;;;;;;9.11;32.62;100423.56;4994734;28;20038;-82
2022/05/01 05:58:36;;;;;;;6.82;3.00;;;;;;;9.23;33.53;100415.06;4995375;28;20404;-79
2022/05/01 06:01:02;;;;;;;6.70;2.50;;;;;;;9.38;33.15;100415.03;4995123;28;20046;-77
2022/05/01 06:03:29;;;;;;;6.93;2.13;;;;;;;9.46;33.08;100419.91;4995572;28;20567;-78
2022/05/01 06:05:55;;;;;;;9.68;2.00;;;;;;;9.57;32.25;100423.41;4994592;28;20483;-77
2022/05/01 06:08:21;;;;;;;5.50;2.40;;;;;;;9.56;32.24;100408.13;4993871;28;20034;-81
2022/05/01 06:10:48;;;;;;;5.68;2.28;;;;;;;9.80;32.84;100420.06;4993220;28;20054;-79
2022/05/01 06:13:14;;;;;;;6.95;2.10;;;;;;;9.86;31.79;100423.56;4997220;28;20041;-81
2022/05/01 06:15:43;;;;;;;3.60;2.23;;;;;;;9.94;32.02;100414.78;4993419;28;20034;-80
2022/05/01 06:18:11;;;;;;;9.57;2.15;;;;;;;10.03;31.46;100420.47;4992988;28;20038;-76
2022/05/01 06:20:39;;;;;;;4.65;2.13;;;;;;;10.05;31.23;100401.88;4993254;28;20034;-76
2022/05/01 06:23:06;;;;;;;9.73;2.15;;;;;;;10.16;31.20;100410.81;4991885;28;20419;-77
2022/05/01 06:25:32;;;;;;;9.98;2.25;;;;;;;10.20;31.13;100399.06;5007855;28;20044;-77
2022/05/01 06:27:58;;;;;;;10.15;2.50;;;;;;;10.22;31.64;100412.44;4992185;28;20138;-77
2022/05/01 06:30:25;;;;;;;7.50;3.20;;;;;;;10.27;31.17;100404.25;4993222;28;20073;-77
2022/05/01 06:32:50;;;;;;;26.10;13.70;;;;;;;10.32;31.28;100410.47;4993372;28;20046;-83
2022/05/01 06:35:17;;;;;;;13.68;2.83;;;;;;;10.28;31.11;100411.31;4993853;28;20536;-78
2022/05/01 06:37:44;;;;;;;13.98;2.30;;;;;;;10.28;30.66;100405.88;4993348;28;20080;-76
2022/05/01 06:40:10;;;;;;;6.70;1.80;;;;;;;10.25;30.55;100409.94;4993312;28;20126;-77
2022/05/01 06:42:37;;;;;;;3.33;1.65;;;;;;;10.28;30.39;100401.22;4993146;28;20123;-77
2022/05/01 06:45:04;;;;;;;2.38;1.70;;;;;;;10.25;30.84;100387.25;4994457;28;20450;-78
2022/05/01 06:47:30;;;;;;;2.85;1.80;;;;;;;10.41;30.71;100398.94;4994061;28;20077;-78
2022/05/01 06:49:56;;;;;;;4.35;1.90;;;;;;;10.38;30.53;100392.13;4993539;28;20096;-77
2022/05/01 06:52:24;;;;;;;10.95;3.20;;;;;;;10.54;31.48;100390.91;4992722;28;20053;-78
2022/05/01 06:54:56;;;;;;;7.90;2.40;;;;;;;10.55;31.04;100376.13;4992867;28;20129;-77
2022/05/01 06:57:23;;;;;;;13.00;2.10;;;;;;;10.61;31.29;100397.97;4992588;28;20149;-77
2022/05/01 06:59:50;;;;;;;10.00;2.63;;;;;;;10.64;30.72;100387.25;4992643;28;20035;-79
2022/05/01 07:02:16;;;;;;;6.38;2.60;;;;;;;10.69;30.31;100383.66;4992772;28;20046;-77
2022/05/01 07:04:43;;;;;;;5.03;2.53;;;;;;;10.70;30.71;100386.13;4992820;28;20038;-77
2022/05/01 07:07:09;;;;;;;8.33;2.33;;;;;;;10.82;30.86;100378.31;4992642;28;20051;-77
2022/05/01 07:09:35;;;;;;;4.60;2.58;;;;;;;10.95;30.46;100379.56;4995730;28;20597;-77
2022/05/01 07:12:02;;;;;;;55.42;22.67;;;;;;;10.89;29.75;100379.91;4992386;28;20042;-78
2022/05/01 07:14:28;;;;;;;133.93;39.00;;;;;;;11.07;29.41;100375.63;4992399;28;20042;-76
2022/05/01 07:16:55;;;;;;;162.75;43.53;;;;;;;11.08;28.65;100371.78;4992169;28;20053;-78
2022/05/01 07:19:21;;;;;;;13.35;5.00;;;;;;;11.15;29.69;100355.81;4991899;28;20042;-77
2022/05/01 07:21:49;;;;;;;59.33;12.40;;;;;;;11.21;29.13;100362.88;4992768;28;20069;-77
2022/05/01 07:24:15;;;;;;;44.55;12.75;;;;;;;11.29;29.28;100354.00;4992598;28;20208;-77
2022/05/01 07:27:06;;;;;;;94.10;24.00;;;;;;;11.40;29.15;100363.75;4990501;28;20050;-77
2022/05/01 07:29:32;;;;;;;16.73;4.10;;;;;;;11.51;28.62;100361.69;4992822;28;20038;-79
2022/05/01 07:32:13;;;;;;;23.40;7.07;;;;;;;11.49;29.13;100366.66;4991529;28;20042;-78
2022/05/01 07:34:52;;;;;;;24.98;7.22;;;;;;;11.45;28.87;100360.13;4992421;28;20049;-78
2022/05/01 07:37:26;;;;;;;284.27;64.43;;;;;;;11.40;28.89;100339.09;4992291;28;20046;-78
2022/05/01 07:39:54;;;;;;;174.13;48.72;;;;;;;11.60;29.60;100337.22;4989857;28;20042;-79
2022/05/01 07:42:23;;;;;;;201.63;51.58;;;;;;;11.84;29.64;100356.31;4990604;28;20038;-76
2022/05/01 07:44:52;;;;;;;57.30;11.00;;;;;;;11.84;28.07;100359.91;4988423;28;20447;-77
2022/05/01 07:47:19;;;;;;;43.03;9.98;;;;;;;12.05;27.36;100352.19;4988921;28;20077;-76
2022/05/01 07:49:45;;;;;;;133.48;26.50;;;;;;;12.07;27.48;100355.47;4988622;28;20141;-77
2022/05/01 07:52:11;;;;;;;256.38;52.70;;;;;;;12.11;27.17;100341.97;4984684;28;20522;-77
2022/05/01 07:54:39;;;;;;;22.23;6.78;;;;;;;12.16;27.48;100356.41;4987964;28;20557;-76
2022/05/01 07:57:10;;;;;;;244.10;40.45;;;;;;;12.05;27.21;100343.16;4987997;28;20034;-76
2022/05/01 07:59:44;;;;;;;184.98;33.22;;;;;;;12.14;27.07;100335.91;4987110;28;20034;-76
2022/05/01 08:02:13;;;;;;;280.20;49.80;;;;;;;12.21;27.83;100336.31;4988016;28;20404;-77
2022/05/01 08:04:40;;;;;;;43.88;11.55;;;;;;;12.28;27.03;100342.22;5002560;28;20047;-79
2022/05/01 08:07:11;;;;;;;50.35;14.77;;;;;;;12.14;26.83;100328.47;4986198;28;20503;-78
2022/05/01 08:09:37;;;;;;;62.40;15.77;;;;;;;12.04;27.42;100331.38;4986684;28;20057;-77
2022/05/01 08:12:04;;;;;;;7.47;2.63;;;;;;;11.90;26.47;100325.84;5002041;28;20034;-77
2022/05/01 08:14:32;;;;;;;164.93;36.22;;;;;;;11.87;27.81;100329.19;4986843;28;20050;-77
2022/05/01 08:17:10;;;;;;;16.10;4.60;;;;;;;11.93;26.84;100325.25;4986720;28;20508;-75
2022/05/01 08:22:21;;;;;;;80.30;19.38;;;;;;;12.28;27.02;100303.03;4987638;28;20041;-77
2022/05/01 08:24:47;;;;;;;146.00;41.20;;;;;;;12.42;26.07;100301.19;4987373;28;20038;-75
2022/05/01 08:27:14;;;;;;;68.78;14.45;;;;;;;12.46;26.86;100310.41;4987554;28;20038;-77
2022/05/01 08:29:40;;;;;;;9.82;2.90;;;;;;;12.67;25.75;100302.63;4983034;28;20041;-77
2022/05/01 08:32:07;;;;;;;62.38;9.80;;;;;;;12.71;26.32;100306.38;4987738;28;20087;-76
2022/05/01 08:34:33;;;;;;;11.60;3.43;;;;;;;12.80;24.83;100309.25;4989155;28;20035;-76
2022/05/01 08:36:59;;;;;;;16.57;4.00;;;;;;;12.91;26.25;100302.44;4988573;28;20057;-80
2022/05/01 08:39:25;;;;;;;30.77;6.50;;;;;;;13.16;25.61;100290.16;4988495;28;20097;-76
2022/05/01 08:41:52;;;;;;;75.33;14.80;;;;;;;13.38;27.18;100282.03;4987806;28;20205;-76
2022/05/01 08:44:30;;;;;;;38.60;8.27;;;;;;;13.28;26.52;100268.50;4987727;28;20042;-78
2022/05/01 08:47:02;;;;;;;197.23;31.23;;;;;;;13.51;26.24;100280.38;4988846;28;20046;-78
2022/05/01 08:49:32;;;;;;;111.15;19.17;;;;;;;13.40;25.49;100281.69;4989109;28;20050;-79
2022/05/01 08:52:00;;;;;;;54.70;8.43;;;;;;;13.58;25.13;100274.44;4988044;28;20031;-79
2022/05/01 08:54:31;;;;;;;49.10;11.05;;;;;;;13.81;26.08;100264.31;4988478;28;20182;-78
2022/05/01 08:56:58;;;;;;;44.90;11.60;;;;;;;13.69;25.64;100264.84;4987805;28;20038;-80
2022/05/01 08:59:25;;;;;;;31.90;5.60;;;;;;;13.44;24.83;100274.47;4988250;28;20073;-79
2022/05/01 09:01:53;;;;;;;79.68;10.80;;;;;;;13.27;25.38;100271.56;4986718;28;20713;-78
2022/05/01 09:04:23;;;;;;;151.68;27.13;;;;;;;13.03;25.93;100261.59;4985912;28;20034;-78
2022/05/01 09:06:50;;;;;;;85.95;22.33;;;;;;;13.19;25.10;100251.09;4988288;28;20511;-76
2022/05/01 09:09:19;;;;;;;83.70;25.67;;;;;;;13.50;25.54;100250.44;4988947;28;20053;-75
2022/05/01 09:14:33;;;;;;;33.10;7.13;;;;;;;13.62;25.15;100243.28;4994994;28;20050;-78
2022/05/01 09:17:16;;;;;;;;;;;;;;;13.70;24.54;100238.97;4994869;28;20046;-78
2022/05/01 09:19:44;;;;;;;41.55;14.20;;;;;;;13.69;24.55;100237.38;4995061;28;20299;-80
2022/05/01 09:22:12;;;;;;;410.98;134.05;;;;;;;13.57;24.31;100232.41;5009702;28;20038;-79
2022/05/01 09:24:39;;;;;;;69.60;17.30;;;;;;;13.29;24.51;100241.88;4994930;28;20046;-81
2022/05/01 09:27:05;;;;;;;;;;;;;;;13.14;24.42;100243.81;4994807;28;20118;-80
2022/05/01 09:29:32;;;;;;;30.23;6.20;;;;;;;13.05;23.84;100244.81;4994439;28;20007;-78
2022/05/01 09:32:03;;;;;;;114.38;32.22;;;;;;;13.01;24.47;100230.88;4994270;28;20050;-76
2022/05/01 09:34:32;;;;;;;45.13;8.27;;;;;;;13.26;24.83;100235.03;4994392;28;20042;-77
2022/05/01 09:37:02;;;;;;;81.32;19.75;;;;;;;13.61;25.80;100232.63;4995170;28;20046;-76
2022/05/01 09:39:33;;;;;;;34.22;6.10;;;;;;;13.73;23.75;100224.63;4976810;28;20072;-78
2022/05/01 09:42:18;;;;;;;173.02;39.13;;;;;;;14.06;24.47;100224.38;4994220;28;20030;-77
2022/05/01 09:45:15;;;;;;;128.00;29.40;;;;;;;14.23;24.15;100223.66;4993720;28;20035;-78
2022/05/01 09:47:43;;;;;;;21.65;4.88;;;;;;;14.24;23.46;100225.31;4986675;28;20037;-76
2022/05/01 09:50:13;;;;;;;32.38;6.88;;;;;;;14.22;23.25;100227.53;4994635;28;20062;-76
2022/05/01 09:53:00;;;;;;;52.38;16.08;;;;;;;13.80;23.51;100227.75;4991707;28;20133;-78
2022/05/01 09:55:29;;;;;;;58.83;17.95;;;;;;;13.46;23.55;100221.97;4993934;28;20042;-77
2022/05/01 09:58:02;;;;;;;15.18;5.43;;;;;;;13.49;24.46;100224.09;4993995;28;20054;-77
2022/05/01 10:00:54;;;;;;;31.15;7.78;;;;;;;13.30;24.64;100197.59;4993877;28;20050;-79
2022/05/01 10:03:25;;;;;;;37.22;5.30;;;;;;;13.37;24.95;100219.16;4992967;28;20069;-81
2022/05/01 10:05:54;;;;;;;44.50;7.85;;;;;;;13.32;24.26;100222.03;4993709;28;20046;-78
2022/05/01 10:08:20;;;;;;;12.93;3.58;;;;;;;13.37;24.39;100203.47;4992447;28;20053;-77
2022/05/01 10:10:49;;;;;;;6.65;3.15;;;;;;;13.34;23.32;100206.88;4993248;28;20058;-77
2022/05/01 10:13:17;;;;;;;29.55;7.20;;;;;;;13.23;24.86;100202.69;4993609;28;20172;-76
2022/05/01 10:15:44;;;;;;;36.42;7.38;;;;;;;13.24;24.75;100203.50;4993648;28;20384;-76
2022/05/01 10:18:11;;;;;;;43.30;8.50;;;;;;;13.25;25.52;100207.91;4993543;28;20050;-76
2022/05/01 10:20:38;;;;;;;15.43;4.25;;;;;;;13.16;23.94;100199.56;5008615;28;20104;-77
2022/05/01 10:23:04;;;;;;;59.33;12.38;;;;;;;13.04;24.75;100200.06;4993690;28;20042;-76
2022/05/01 10:25:35;;;;;;;52.60;9.32;;;;;;;13.16;25.91;100188.56;4994533;28;20529;-77
2022/05/01 10:28:19;;;;;;;49.55;8.52;;;;;;;13.20;23.91;100188.75;4994710;28;20173;-77
2022/05/01 10:34:43;;;;;;;25.77;7.05;;;;;;;13.16;24.69;100191.31;4992165;28;20053;-77
2022/05/01 10:37:28;;;;;;;130.65;28.90;;;;;;;13.16;25.14;100189.38;5008439;28;20048;-77
2022/05/01 10:39:58;;;;;;;12.40;4.80;;;;;;;13.09;24.18;100183.50;4991923;28;20062;-77
2022/05/01 10:42:39;;;;;;;63.67;15.25;;;;;;;13.03;24.22;100179.22;4993088;28;20050;-76
2022/05/01 10:45:21;;;;;;;274.05;71.00;;;;;;;13.09;24.51;100174.44;4993022;28;20618;-76
2022/05/01 10:47:49;;;;;;;292.52;62.53;;;;;;;13.14;24.59;100175.16;4991738;28;20046;-80
2022/05/01 10:50:27;;;;;;;26.15;7.80;;;;;;;13.34;24.15;100168.41;4993371;28;20216;-83
2022/05/01 10:53:16;;;;;;;56.25;8.98;;;;;;;13.44;22.69;100161.03;4990912;28;20065;-79
2022/05/01 10:55:49;;;;;;;117.97;22.88;;;;;;;13.55;22.43;100154.19;4994643;28;20073;-84
2022/05/01 10:58:22;;;;;;;61.20;12.55;;;;;;;13.32;22.62;100154.19;4992821;28;20042;-85
2022/05/01 11:00:51;;;;;;;61.38;12.43;;;;;;;13.73;22.32;100147.69;4993018;28;20042;-80
2022/05/01 11:03:27;;;;;;;107.93;22.10;;;;;;;13.96;22.88;100144.91;4995366;28;20048;-81
2022/05/01 11:06:02;;;;;;;200.02;34.15;;;;;;;13.98;23.19;100142.66;4995942;28;20049;-79
2022/05/01 11:08:33;;;;;;;99.30;17.25;;;;;;;13.94;22.90;100090.25;4995958;28;20042;-85
2022/05/01 11:11:02;;;;;;;287.50;66.18;;;;;;;14.33;23.05;100122.41;4993751;28;20133;-81
2022/05/01 11:13:35;;;;;;;231.75;51.90;;;;;;;14.42;22.84;100132.66;4994058;28;20050;-79
2022/05/01 11:16:01;;;;;;;201.35;45.47;;;;;;;14.51;23.41;100125.28;4997274;28;20512;-84
2022/05/01 11:18:34;;;;;;;132.82;28.58;;;;;;;14.53;23.17;100123.81;4993111;28;20492;-86
2022/05/01 11:21:19;;;;;;;78.28;19.02;;;;;;;14.98;23.37;100125.53;4996458;28;20149;-81
2022/05/01 11:24:02;;;;;;;28.95;9.02;;;;;;;15.17;21.75;100105.94;4994207;28;20527;-88
2022/05/01 11:26:29;;;;;;;43.53;9.48;;;;;;;15.32;20.67;100110.13;4993137;28;20070;-80
2022/05/01 11:29:17;;;;;;;59.97;14.90;;;;;;;15.16;20.49;100104.31;4993416;28;20108;-80
2022/05/01 11:31:46;;;;;;;94.68;26.10;;;;;;;15.40;20.93;100101.88;4992898;28;20716;-85
2022/05/01 11:34:24;;;;;;;92.47;32.80;;;;;;;15.53;20.74;100108.34;4992146;28;20054;-81
2022/05/01 11:36:58;;;;;;;35.90;9.05;;;;;;;15.83;19.65;100109.28;4992589;28;20044;-82
2022/05/01 11:39:49;;;;;;;507.40;202.70;;;;;;;16.00;19.92;100108.41;4993490;28;20073;-82
2022/05/01 11:42:24;;;;;;;69.53;16.08;;;;;;;16.34;21.17;100101.13;4994164;28;20038;-86
2022/05/01 11:44:51;;;;;;;90.20;21.55;;;;;;;16.60;20.54;100089.94;4993866;28;20428;-81
2022/05/01 11:47:22;;;;;;;47.55;10.35;;;;;;;16.43;19.80;100097.19;4993841;28;20050;-80
2022/05/01 11:49:50;;;;;;;126.50;22.52;;;;;;;15.93;20.81;100094.31;4991693;28;20046;-81
2022/05/01 11:52:17;;;;;;;107.30;28.52;;;;;;;15.60;20.78;100081.09;4993001;28;20105;-81
2022/05/01 11:54:58;;;;;;;119.05;35.13;;;;;;;15.60;21.02;100086.59;4992565;28;20039;-80
2022/05/01 12:03:07;;;;;;;35.30;10.23;;;;;;;15.18;20.80;100080.00;4993640;28;20042;-81
2022/05/01 12:05:45;;;;;;;73.70;14.82;;;;;;;15.35;20.96;100076.44;4995728;28;20046;-81
2022/05/01 12:08:13;;;;;;;175.57;35.55;;;;;;;15.14;21.02;100074.34;4996441;28;20038;-82